LQTZ/TZL METAR and TAF weather

Enter ICAO airport designator
Station Type Date Time Source
LQTZ METAR 2020/09/26 23:00 UTC NOAA

LQTZ 262300Z 09003KT 9999 -RA BKN045 10/10 Q1002


Station Type Date Time Source
LQTZ Decoded METAR 2020/09/26 23:00 UTC NOAA

Tuzla, Bosnia and Herzegovina (LQTZ) 44-33N 018-42E
Sep 26, 2020 - 07:00 PM EDT / 2020.09.26 2300 UTC
Wind: from the E (090 degrees) at 3 MPH (3 KT):0
Visibility: greater than 7 mile(s):0
Sky conditions: mostly cloudy
Weather: light rain
Temperature: 50 F (10 C)
Dew Point: 50 F (10 C)
Relative Humidity: 100%
Pressure (altimeter): 29.59 in. Hg (1002 hPa)
ob: LQTZ 262300Z 09003KT 9999 -RA BKN045 10/10 Q1002
cycle: 23

Station Type Date Time Source
LQTZ TAF 2020/09/26 18:16 UTC NOAA

TAF COR LQTZ 261700Z 2618/2718 09005KT 9999 FEW017 BKN040 TX18/2714Z TN07/2704Z PROB30
TEMPO 2620/2702 27010KT 4000 SHRA FEW030TCU BKN035
TEMPO 2702/2709 4000 -RA BR BKN012 OVC025

Example: see airport list